createdAt,value
2023-04-10T00:00:13.347Z,11.12
2023-04-10T00:02:40.126Z,11.09
2023-04-10T00:05:09.891Z,11.07
2023-04-10T00:07:38.048Z,11.04
2023-04-10T00:10:05.343Z,11.02
2023-04-10T00:12:32.672Z,11.00
2023-04-10T00:14:59.674Z,11.01
2023-04-10T00:17:26.463Z,11.04
2023-04-10T00:19:53.301Z,11.05
2023-04-10T00:22:20.361Z,11.02
2023-04-10T00:24:47.265Z,11.02
2023-04-10T00:27:14.069Z,11.02
2023-04-10T00:29:43.450Z,10.99
2023-04-10T00:32:13.044Z,10.94
2023-04-10T00:34:40.019Z,10.89
2023-04-10T00:37:07.318Z,10.89
2023-04-10T00:39:34.453Z,10.86
2023-04-10T00:42:02.416Z,10.84
2023-04-10T00:44:29.220Z,10.79
2023-04-10T00:46:56.279Z,10.76
2023-04-10T00:49:23.318Z,10.75
2023-04-10T00:51:50.124Z,10.76
2023-04-10T00:54:17.104Z,10.74
2023-04-10T00:56:44.997Z,10.75
2023-04-10T00:59:12.081Z,10.71
2023-04-10T01:01:39.303Z,10.68
2023-04-10T01:04:07.046Z,10.66
2023-04-10T01:06:59.273Z,10.64
2023-04-10T01:09:47.680Z,10.57
2023-04-10T01:12:39.423Z,10.55
2023-04-10T01:15:11.057Z,10.53
2023-04-10T01:18:06.880Z,10.53
2023-04-10T01:20:39.798Z,10.51
2023-04-10T01:23:28.122Z,10.50
2023-04-10T01:26:06.053Z,10.49
2023-04-10T01:28:45.018Z,10.54
2023-04-10T01:31:17.406Z,10.53
2023-04-10T01:33:49.798Z,10.51
2023-04-10T01:36:31.890Z,10.53
2023-04-10T01:38:58.988Z,10.52
2023-04-10T01:41:27.935Z,10.53
2023-04-10T01:43:58.083Z,10.56
2023-04-10T01:46:27.288Z,10.58
2023-04-10T01:48:56.149Z,10.60
2023-04-10T01:51:25.856Z,10.61
2023-04-10T01:53:53.175Z,10.61
2023-04-10T01:56:24.822Z,10.58
2023-04-10T01:58:51.804Z,10.57
2023-04-10T02:01:29.899Z,10.57
2023-04-10T02:03:59.354Z,10.55
2023-04-10T02:06:36.655Z,10.55
2023-04-10T02:09:32.942Z,10.55
2023-04-10T02:12:06.782Z,10.54
2023-04-10T02:14:39.275Z,10.55
2023-04-10T02:17:07.171Z,10.55
2023-04-10T02:19:35.768Z,10.52
2023-04-10T02:22:06.072Z,10.51
2023-04-10T02:24:34.900Z,10.49
2023-04-10T02:27:01.841Z,10.42
2023-04-10T02:29:28.582Z,10.31
2023-04-10T02:31:55.928Z,10.22
2023-04-10T02:34:22.764Z,10.12
2023-04-10T02:36:49.520Z,10.06
2023-04-10T02:39:16.340Z,10.00
2023-04-10T02:41:49.340Z,9.95
2023-04-10T02:44:16.478Z,9.91
2023-04-10T02:46:43.871Z,9.85
2023-04-10T02:49:12.314Z,9.85
2023-04-10T02:51:38.947Z,9.86
2023-04-10T02:54:06.013Z,9.86
2023-04-10T02:56:35.032Z,9.85
2023-04-10T02:59:02.202Z,9.83
2023-04-10T03:01:30.039Z,9.83
2023-04-10T03:03:58.447Z,9.81
2023-04-10T03:06:29.176Z,9.79
2023-04-10T03:08:57.458Z,9.75
2023-04-10T03:11:24.290Z,9.73
2023-04-10T03:13:51.420Z,9.72
2023-04-10T03:16:18.919Z,9.70
2023-04-10T03:18:46.591Z,9.67
2023-04-10T03:21:13.298Z,9.65
2023-04-10T03:23:40.385Z,9.62
2023-04-10T03:26:07.551Z,9.60
2023-04-10T03:28:37.934Z,9.59
2023-04-10T03:31:05.896Z,9.58
2023-04-10T03:33:35.527Z,9.57
2023-04-10T03:36:02.947Z,9.58
2023-04-10T03:38:29.714Z,9.59
2023-04-10T03:40:56.454Z,9.57
2023-04-10T03:43:25.782Z,9.52
2023-04-10T03:45:52.578Z,9.48
2023-04-10T03:48:21.105Z,9.42
2023-04-10T03:50:47.891Z,9.38
2023-04-10T03:53:19.141Z,9.39
2023-04-10T03:55:46.218Z,9.40
2023-04-10T03:58:13.290Z,9.43
2023-04-10T04:00:40.326Z,9.42
2023-04-10T04:03:18.267Z,9.41
2023-04-10T04:06:00.230Z,9.38
2023-04-10T04:08:43.979Z,9.38
2023-04-10T04:11:11.477Z,9.35
2023-04-10T04:14:04.498Z,9.29
2023-04-10T04:16:51.427Z,9.22
2023-04-10T04:19:34.189Z,9.19
2023-04-10T04:22:15.965Z,9.16
2023-04-10T04:25:03.171Z,9.11
2023-04-10T04:27:49.915Z,9.07
2023-04-10T04:30:36.910Z,9.04
2023-04-10T04:33:15.313Z,9.02
2023-04-10T04:35:57.152Z,8.99
2023-04-10T04:38:50.188Z,8.97
2023-04-10T04:41:46.093Z,8.96
2023-04-10T04:44:24.891Z,8.99
2023-04-10T04:47:09.095Z,9.03
2023-04-10T04:49:54.742Z,9.05
2023-04-10T04:52:44.454Z,9.04
2023-04-10T04:55:37.116Z,9.05
2023-04-10T04:58:24.606Z,9.10
2023-04-10T05:01:09.871Z,9.13
2023-04-10T05:04:03.267Z,9.20
2023-04-10T05:06:55.849Z,9.24
2023-04-10T05:09:54.485Z,9.30
2023-04-10T05:12:41.911Z,9.31
2023-04-10T05:15:26.961Z,9.34
2023-04-10T05:18:13.755Z,9.39
2023-04-10T05:21:06.913Z,9.46
2023-04-10T05:23:36.324Z,9.53
2023-04-10T05:26:21.464Z,9.55
2023-04-10T05:28:56.523Z,9.55
2023-04-10T05:31:36.644Z,9.55
2023-04-10T05:34:32.456Z,9.57
2023-04-10T05:37:15.997Z,9.63
2023-04-10T05:40:05.853Z,9.66
2023-04-10T05:42:50.523Z,9.71
2023-04-10T05:45:29.138Z,9.83
2023-04-10T05:48:07.688Z,9.90
2023-04-10T05:50:46.763Z,9.92
2023-04-10T05:53:31.811Z,9.99
2023-04-10T05:56:17.199Z,10.04
2023-04-10T05:59:21.168Z,10.12
2023-04-10T06:02:02.416Z,10.19
2023-04-10T06:04:29.451Z,10.29
2023-04-10T06:06:58.296Z,10.36
2023-04-10T06:09:25.773Z,10.44
2023-04-10T06:11:53.500Z,10.44
2023-04-10T06:14:23.099Z,10.47
2023-04-10T06:16:50.022Z,10.50
2023-04-10T06:19:16.739Z,10.54
2023-04-10T06:21:46.852Z,10.61
2023-04-10T06:24:14.353Z,10.66
2023-04-10T06:26:41.318Z,10.76
2023-04-10T06:29:09.363Z,11.03
2023-04-10T06:31:36.520Z,11.42
2023-04-10T06:34:04.112Z,11.85
2023-04-10T06:36:31.675Z,12.40
2023-04-10T06:39:04.393Z,13.00
2023-04-10T06:41:31.186Z,13.88
2023-04-10T06:44:07.161Z,14.84
2023-04-10T06:46:33.976Z,15.11
2023-04-10T06:49:01.521Z,14.81
2023-04-10T06:51:28.352Z,15.05
2023-04-10T06:53:55.442Z,15.88
2023-04-10T06:56:23.216Z,17.61
2023-04-10T06:58:50.336Z,19.21
2023-04-10T07:01:17.863Z,20.26
2023-04-10T07:03:45.142Z,20.16
2023-04-10T07:06:12.397Z,18.43
2023-04-10T07:08:39.107Z,16.88
2023-04-10T07:11:06.129Z,15.85
2023-04-10T07:13:35.715Z,15.06
2023-04-10T07:16:02.712Z,14.55
2023-04-10T07:18:29.941Z,14.19
2023-04-10T07:20:57.789Z,13.96
2023-04-10T07:23:25.931Z,13.80
2023-04-10T07:25:53.883Z,13.70
2023-04-10T07:28:40.296Z,13.67
2023-04-10T07:31:08.252Z,13.60
2023-04-10T07:33:42.167Z,13.55
2023-04-10T07:36:14.384Z,13.47
2023-04-10T07:38:44.338Z,13.51
2023-04-10T07:41:12.364Z,13.52
2023-04-10T07:43:51.455Z,13.59
2023-04-10T07:46:18.529Z,13.59
2023-04-10T07:48:59.944Z,13.54
2023-04-10T07:51:34.769Z,13.51
2023-04-10T07:54:02.831Z,13.55
2023-04-10T07:56:31.445Z,13.64
2023-04-10T07:59:01.039Z,13.66
2023-04-10T08:01:35.233Z,13.83
2023-04-10T08:04:07.724Z,13.96
2023-04-10T08:06:37.613Z,14.05
2023-04-10T08:09:06.624Z,14.04
2023-04-10T08:11:37.443Z,14.08
2023-04-10T08:14:07.001Z,14.12
2023-04-10T08:16:36.193Z,14.23
2023-04-10T08:19:03.440Z,14.26
2023-04-10T08:21:32.190Z,14.29
2023-04-10T08:24:01.202Z,14.40
2023-04-10T08:26:28.829Z,14.56
2023-04-10T08:28:58.018Z,14.74
2023-04-10T08:31:26.848Z,14.88
2023-04-10T08:33:53.955Z,14.97
2023-04-10T08:36:21.178Z,15.02
2023-04-10T08:38:48.601Z,15.09
2023-04-10T08:41:17.571Z,15.11
2023-04-10T08:43:46.121Z,15.19
2023-04-10T08:46:14.386Z,15.37
2023-04-10T08:48:48.288Z,15.69
2023-04-10T08:51:20.474Z,15.96
2023-04-10T08:53:59.515Z,17.34
2023-04-10T08:56:26.877Z,21.51
2023-04-10T08:58:53.695Z,25.52
2023-04-10T09:01:24.947Z,28.43
2023-04-10T09:03:51.868Z,30.40
2023-04-10T09:06:18.638Z,31.69
2023-04-10T09:08:45.621Z,33.53
2023-04-10T09:11:13.474Z,34.47
2023-04-10T09:13:43.778Z,34.00
2023-04-10T09:16:12.145Z,33.11
2023-04-10T09:18:48.125Z,33.45
2023-04-10T09:21:19.417Z,33.21
2023-04-10T09:23:48.175Z,33.79
2023-04-10T09:26:28.783Z,34.40
2023-04-10T09:29:05.906Z,35.52
2023-04-10T09:31:35.498Z,36.71
2023-04-10T09:34:21.693Z,37.41
2023-04-10T09:37:00.117Z,37.22
2023-04-10T09:39:43.372Z,37.12
2023-04-10T09:42:15.219Z,37.33
2023-04-10T09:44:46.038Z,36.96
2023-04-10T09:47:21.501Z,35.94
2023-04-10T09:49:53.664Z,34.25
2023-04-10T09:52:23.233Z,33.01
2023-04-10T09:54:50.353Z,32.88
2023-04-10T09:57:19.328Z,32.51
2023-04-10T09:59:51.353Z,32.73
2023-04-10T10:02:19.991Z,33.75
2023-04-10T10:04:49.552Z,35.53
2023-04-10T10:07:17.956Z,36.00
2023-04-10T10:09:46.767Z,36.55
2023-04-10T10:12:16.917Z,36.73
2023-04-10T10:14:51.049Z,35.58
2023-04-10T10:17:22.484Z,35.72
2023-04-10T10:20:09.235Z,36.60
2023-04-10T10:22:37.713Z,37.85
2023-04-10T10:25:04.901Z,39.07
2023-04-10T10:27:34.627Z,40.12
2023-04-10T10:30:08.456Z,40.90
2023-04-10T10:32:40.554Z,40.64
2023-04-10T10:35:08.627Z,41.05
2023-04-10T10:37:36.190Z,42.51
2023-04-10T10:40:20.975Z,45.11
2023-04-10T10:42:58.640Z,45.99
2023-04-10T10:45:37.531Z,45.67
2023-04-10T10:48:04.222Z,45.97
2023-04-10T10:50:54.017Z,44.64
2023-04-10T10:53:32.865Z,43.97
2023-04-10T10:56:00.243Z,42.91
2023-04-10T10:58:46.496Z,42.97
2023-04-10T11:01:13.385Z,43.96
2023-04-10T11:03:40.664Z,45.31
2023-04-10T11:06:09.599Z,45.24
2023-04-10T11:08:44.443Z,45.25
2023-04-10T11:11:27.520Z,46.01
2023-04-10T11:13:57.085Z,45.47
2023-04-10T11:16:46.908Z,44.69
2023-04-10T11:19:15.937Z,44.74
2023-04-10T11:22:04.369Z,45.15
2023-04-10T11:25:02.504Z,44.81
2023-04-10T11:27:40.555Z,44.28
2023-04-10T11:30:27.780Z,42.60
2023-04-10T11:32:58.120Z,40.49
2023-04-10T11:35:26.830Z,39.06
2023-04-10T11:38:11.772Z,37.50
2023-04-10T11:40:54.552Z,35.96
2023-04-10T11:43:21.503Z,36.54
2023-04-10T11:45:48.490Z,37.50
2023-04-10T11:48:17.515Z,37.72
2023-04-10T11:50:44.302Z,37.25
2023-04-10T11:53:21.622Z,36.56
2023-04-10T11:55:51.076Z,34.95
2023-04-10T11:58:32.815Z,32.72
2023-04-10T12:01:04.977Z,31.35
2023-04-10T12:03:39.815Z,31.06
2023-04-10T12:06:14.846Z,31.75
2023-04-10T12:08:47.758Z,32.58
2023-04-10T12:11:16.177Z,32.87
2023-04-10T12:13:42.947Z,32.98
2023-04-10T12:16:11.165Z,33.23
2023-04-10T12:18:38.988Z,33.10
2023-04-10T12:21:08.331Z,33.02
2023-04-10T12:23:39.251Z,32.64
2023-04-10T12:26:11.456Z,31.27
2023-04-10T12:28:39.930Z,29.91
2023-04-10T12:31:07.295Z,29.28
2023-04-10T12:33:34.384Z,28.62
2023-04-10T12:36:01.555Z,28.22
2023-04-10T12:38:42.759Z,28.14
2023-04-10T12:41:11.494Z,28.26
2023-04-10T12:43:42.637Z,28.26
2023-04-10T12:46:11.063Z,28.12
2023-04-10T12:48:38.172Z,27.55
2023-04-10T12:51:05.114Z,27.25
2023-04-10T12:53:31.970Z,26.98
2023-04-10T12:56:06.533Z,26.78
2023-04-10T12:58:33.488Z,26.68
2023-04-10T13:01:11.784Z,26.59
2023-04-10T13:03:38.741Z,26.50
2023-04-10T13:06:08.442Z,26.42
2023-04-10T13:08:35.890Z,26.33
2023-04-10T13:11:06.750Z,26.29
2023-04-10T13:13:33.638Z,26.28
2023-04-10T13:16:00.538Z,26.42
2023-04-10T13:18:27.595Z,26.45
2023-04-10T13:20:54.388Z,26.38
2023-04-10T13:23:21.907Z,26.42
2023-04-10T13:25:48.719Z,26.33
2023-04-10T13:28:16.144Z,25.99
2023-04-10T13:30:43.108Z,25.94
2023-04-10T13:33:10.450Z,25.79
2023-04-10T13:35:37.573Z,25.47
2023-04-10T13:38:04.408Z,25.61
2023-04-10T13:40:31.371Z,25.71
2023-04-10T13:42:58.625Z,25.38
2023-04-10T13:45:25.742Z,25.34
2023-04-10T13:47:52.590Z,25.48
2023-04-10T13:50:21.515Z,25.47
2023-04-10T13:52:48.420Z,25.47
2023-04-10T13:55:15.118Z,25.46
2023-04-10T13:57:42.825Z,25.66
2023-04-10T14:00:10.485Z,25.80
2023-04-10T14:02:40.317Z,25.66
2023-04-10T14:05:07.693Z,25.42
2023-04-10T14:07:34.521Z,25.16
2023-04-10T14:10:02.562Z,24.78
2023-04-10T14:12:29.371Z,24.73
2023-04-10T14:14:56.883Z,24.69
2023-04-10T14:17:24.052Z,24.68
2023-04-10T14:19:52.457Z,24.48
2023-04-10T14:22:19.230Z,24.39
2023-04-10T14:24:52.595Z,24.35
2023-04-10T14:27:23.109Z,24.40
2023-04-10T14:29:54.934Z,24.51
2023-04-10T14:32:22.485Z,24.45
2023-04-10T14:34:49.489Z,24.46
2023-04-10T14:37:17.450Z,24.42
2023-04-10T14:39:44.289Z,24.45
2023-04-10T14:42:11.184Z,24.51
2023-04-10T14:44:38.196Z,24.56
2023-04-10T14:47:08.053Z,24.57
2023-04-10T14:49:35.008Z,24.56
2023-04-10T14:52:01.705Z,24.52
2023-04-10T14:54:28.406Z,24.39
2023-04-10T14:56:58.239Z,24.22
2023-04-10T14:59:25.114Z,24.13
2023-04-10T15:01:54.639Z,24.07
2023-04-10T15:04:21.801Z,24.03
2023-04-10T15:06:51.315Z,23.92
2023-04-10T15:09:19.193Z,23.78
2023-04-10T15:11:47.580Z,23.59
2023-04-10T15:14:14.785Z,23.45
2023-04-10T15:16:42.138Z,23.38
2023-04-10T15:19:14.308Z,23.27
2023-04-10T15:21:42.659Z,23.18
2023-04-10T15:24:12.419Z,23.17
2023-04-10T15:26:42.943Z,23.12
2023-04-10T15:29:09.989Z,23.01
2023-04-10T15:31:37.269Z,23.09
2023-04-10T15:34:04.177Z,23.14
2023-04-10T15:36:34.247Z,23.21
2023-04-10T15:39:03.909Z,23.13
2023-04-10T15:41:32.578Z,23.16
2023-04-10T15:43:59.647Z,23.27
2023-04-10T15:46:27.329Z,23.29
2023-04-10T15:48:54.302Z,23.28
2023-04-10T15:51:21.544Z,23.22
2023-04-10T15:53:48.434Z,23.11
2023-04-10T15:56:16.196Z,22.86
2023-04-10T15:58:43.363Z,22.61
2023-04-10T16:01:10.496Z,22.46
2023-04-10T16:03:37.416Z,22.43
2023-04-10T16:06:04.681Z,22.44
2023-04-10T16:08:31.625Z,22.46
2023-04-10T16:10:58.459Z,22.43
2023-04-10T16:13:25.456Z,22.33
2023-04-10T16:15:54.535Z,22.24
2023-04-10T16:18:21.353Z,22.03
2023-04-10T16:20:48.197Z,21.85
2023-04-10T16:23:16.097Z,21.74
2023-04-10T16:25:42.861Z,21.62
2023-04-10T16:28:09.781Z,21.58
2023-04-10T16:30:36.796Z,21.59
2023-04-10T16:33:04.351Z,21.58
2023-04-10T16:35:31.662Z,21.51
2023-04-10T16:37:59.909Z,21.38
2023-04-10T16:40:32.691Z,21.29
2023-04-10T16:43:01.026Z,21.20
2023-04-10T16:45:29.883Z,21.17
2023-04-10T16:47:56.845Z,21.09
2023-04-10T16:50:24.615Z,21.02
2023-04-10T16:52:51.599Z,20.93
2023-04-10T16:55:20.022Z,20.91
2023-04-10T16:57:46.931Z,20.92
2023-04-10T17:00:17.599Z,20.89
2023-04-10T17:02:50.008Z,20.90
2023-04-10T17:05:17.699Z,20.81
2023-04-10T17:08:19.376Z,20.74
2023-04-10T17:10:46.667Z,20.58
2023-04-10T17:13:23.058Z,20.54
2023-04-10T17:15:50.118Z,20.51
2023-04-10T17:18:17.613Z,20.45
2023-04-10T17:20:47.068Z,20.45
2023-04-10T17:23:15.937Z,20.39
2023-04-10T17:25:42.799Z,20.28
2023-04-10T17:28:09.682Z,20.26
2023-04-10T17:30:36.381Z,20.21
2023-04-10T17:33:03.133Z,20.21
2023-04-10T17:35:29.968Z,20.14
2023-04-10T17:37:57.422Z,20.02
2023-04-10T17:40:25.222Z,19.92
2023-04-10T17:42:52.978Z,19.85
2023-04-10T17:45:19.781Z,19.72
2023-04-10T17:47:46.598Z,19.61
2023-04-10T17:50:13.413Z,19.60
2023-04-10T17:52:40.632Z,19.61
2023-04-10T17:55:07.834Z,19.61
2023-04-10T17:57:35.096Z,19.58
2023-04-10T18:00:01.809Z,19.47
2023-04-10T18:02:28.601Z,19.44
2023-04-10T18:04:56.758Z,19.45
2023-04-10T18:07:23.626Z,19.46
2023-04-10T18:09:50.406Z,19.46
2023-04-10T18:12:17.165Z,19.40
2023-04-10T18:14:45.672Z,19.37
2023-04-10T18:17:12.623Z,19.36
2023-04-10T18:19:39.928Z,19.34
2023-04-10T18:22:07.273Z,19.31
2023-04-10T18:24:34.193Z,19.27
2023-04-10T18:27:01.933Z,19.26
2023-04-10T18:29:31.363Z,19.24
2023-04-10T18:31:58.120Z,19.22
2023-04-10T18:34:24.945Z,19.16
2023-04-10T18:36:52.038Z,19.11
2023-04-10T18:39:19.036Z,19.11
2023-04-10T18:41:45.949Z,19.12
2023-04-10T18:44:12.838Z,19.09
2023-04-10T18:46:46.182Z,19.06
2023-04-10T18:49:17.663Z,19.02
2023-04-10T18:51:50.711Z,19.01
2023-04-10T18:54:17.587Z,18.99
2023-04-10T18:56:44.304Z,19.00
2023-04-10T18:59:10.911Z,18.99
2023-04-10T19:01:39.624Z,18.98
2023-04-10T19:04:06.765Z,18.96
2023-04-10T19:06:35.107Z,18.93
2023-04-10T19:09:01.938Z,18.90
2023-04-10T19:11:28.796Z,18.87
2023-04-10T19:13:55.649Z,18.83
2023-04-10T19:16:22.876Z,18.79
2023-04-10T19:18:49.837Z,18.76
2023-04-10T19:21:17.144Z,18.73
2023-04-10T19:23:43.901Z,18.71
2023-04-10T19:26:10.873Z,18.67
2023-04-10T19:28:37.634Z,18.62
2023-04-10T19:31:04.503Z,18.58
2023-04-10T19:33:31.424Z,18.56
2023-04-10T19:35:59.128Z,18.52
2023-04-10T19:38:27.478Z,18.48
2023-04-10T19:40:54.786Z,18.46
2023-04-10T19:43:23.070Z,18.39
2023-04-10T19:45:53.312Z,18.43
2023-04-10T19:48:24.451Z,18.44
2023-04-10T19:51:06.801Z,18.42
2023-04-10T19:53:39.670Z,18.36
2023-04-10T19:56:06.899Z,18.34
2023-04-10T19:58:40.403Z,18.31
2023-04-10T20:01:08.988Z,18.29
2023-04-10T20:03:36.829Z,18.26
2023-04-10T20:06:04.978Z,18.21
2023-04-10T20:08:36.827Z,18.21
2023-04-10T20:11:13.308Z,18.19
2023-04-10T20:13:51.906Z,18.18
2023-04-10T20:16:27.549Z,18.16
2023-04-10T20:18:57.184Z,18.12
2023-04-10T20:21:24.213Z,18.11
2023-04-10T20:23:51.161Z,18.05
2023-04-10T20:26:17.946Z,18.02
2023-04-10T20:28:49.780Z,17.99
2023-04-10T20:31:23.066Z,17.95
2023-04-10T20:34:19.870Z,17.91
2023-04-10T20:37:13.688Z,17.91
2023-04-10T20:39:40.499Z,17.93
2023-04-10T20:42:07.264Z,17.88
2023-04-10T20:44:40.580Z,17.88
2023-04-10T20:47:07.496Z,17.88
2023-04-10T20:49:37.412Z,17.92
2023-04-10T20:52:07.149Z,17.91
2023-04-10T20:54:34.126Z,17.87
2023-04-10T20:57:06.073Z,17.83
2023-04-10T20:59:38.480Z,17.82
2023-04-10T21:02:06.322Z,17.83
2023-04-10T21:04:33.665Z,17.84
2023-04-10T21:07:00.799Z,17.83
2023-04-10T21:09:27.643Z,17.82
2023-04-10T21:11:54.741Z,17.83
2023-04-10T21:14:21.691Z,17.83
2023-04-10T21:16:49.222Z,17.79
2023-04-10T21:19:20.043Z,17.73
2023-04-10T21:21:50.125Z,17.72
2023-04-10T21:24:17.088Z,17.70
2023-04-10T21:26:43.937Z,17.71
2023-04-10T21:29:14.349Z,17.74
2023-04-10T21:31:41.138Z,17.73
2023-04-10T21:34:11.242Z,17.70
2023-04-10T21:36:42.296Z,17.69
2023-04-10T21:39:09.584Z,17.65
2023-04-10T21:41:38.112Z,17.62
2023-04-10T21:44:08.959Z,17.58
2023-04-10T21:46:56.387Z,17.53
2023-04-10T21:49:30.164Z,17.52
2023-04-10T21:52:38.397Z,17.42
2023-04-10T21:55:06.455Z,17.33
2023-04-10T21:57:33.508Z,17.30
2023-04-10T22:00:01.473Z,17.22
2023-04-10T22:02:42.819Z,17.19
2023-04-10T22:05:24.496Z,17.19
2023-04-10T22:07:57.538Z,17.23
2023-04-10T22:10:24.603Z,17.28
2023-04-10T22:12:51.427Z,17.27
2023-04-10T22:15:24.683Z,17.29
2023-04-10T22:17:51.908Z,17.31
2023-04-10T22:20:18.805Z,17.29
2023-04-10T22:22:51.968Z,17.23
2023-04-10T22:25:18.817Z,17.15
2023-04-10T22:27:45.985Z,17.13
2023-04-10T22:30:16.449Z,17.15
2023-04-10T22:32:45.941Z,17.18
2023-04-10T22:35:16.235Z,17.22
2023-04-10T22:37:55.956Z,17.24
2023-04-10T22:40:29.218Z,17.25
2023-04-10T22:42:56.186Z,17.30
2023-04-10T22:45:24.049Z,17.31
2023-04-10T22:47:58.735Z,17.24
2023-04-10T22:50:25.727Z,17.04
2023-04-10T22:53:00.127Z,16.79
2023-04-10T22:55:31.903Z,16.56
2023-04-10T22:58:01.125Z,16.57
2023-04-10T23:00:28.073Z,16.58
2023-04-10T23:02:55.283Z,16.57
2023-04-10T23:05:22.509Z,16.53
2023-04-10T23:07:49.222Z,16.49
2023-04-10T23:10:16.076Z,16.36
2023-04-10T23:12:42.933Z,16.14
2023-04-10T23:15:13.401Z,15.91
2023-04-10T23:17:42.878Z,15.98
2023-04-10T23:20:10.346Z,16.07
2023-04-10T23:22:37.176Z,16.04
2023-04-10T23:25:05.417Z,16.03
2023-04-10T23:27:42.061Z,16.03
2023-04-10T23:30:09.100Z,15.98
2023-04-10T23:32:36.074Z,15.95
2023-04-10T23:35:02.888Z,15.94
2023-04-10T23:37:29.596Z,15.95
2023-04-10T23:39:56.254Z,16.00
2023-04-10T23:42:23.094Z,15.96
2023-04-10T23:44:50.622Z,15.88
2023-04-10T23:47:17.635Z,15.81
2023-04-10T23:49:45.906Z,15.75
2023-04-10T23:52:12.670Z,15.75
2023-04-10T23:54:39.871Z,15.75
2023-04-10T23:57:08.947Z,15.74
2023-04-10T23:59:38.649Z,15.73
